Aviation Digital Data Service (ADDS)

Output produced by METARs form (2134 UTC 08 August 2020)
found at http://www.aviationweather.gov/metar/data/
 
Forecast for: LPMA (FUNCHAL/MADEIRA , PT)
Text: TAF LPMA 081700Z 0818/0918 36010KT 9999 FEW015 SCT030
Forecast period: 1800 UTC 08 August 2020 to 1800 UTC 09 August 2020
Forecast type: FROM: standard forecast or significant change
Winds: from the N (360 degrees) at 12 MPH (10 knots; 5.1 m/s)
Visibility: 6 or more miles (10+ km)
Ceiling: at least 12,000 feet AGL
Clouds: few clouds at 1500 feet AGL
scattered clouds at 3000 feet AGL
Weather: no significant weather forecast for this period
Text: TEMPO 0818/0918 BKN013
Forecast period: 1800 UTC 08 August 2020 to 1800 UTC 09 August 2020
Forecast type: TEMPORARY: The following changes expected for less than half the time period
Visibility: missing
Ceiling: 1300 feet AGL
Clouds: broken clouds at 1300 feet AGL
Weather: no significant weather forecast for this period
Text: BECMG 0818/0821 03010KT
Forecast period: 1800 UTC 08 August 2020 to 1800 UTC 09 August 2020
Forecast type: BECOMING: Conditions expected to become as follows by 2100 UTC 08 August 2020
Winds: from the NNE (30 degrees) at 12 MPH (10 knots; 5.1 m/s)
Visibility: 6 or more miles (10+ km)
Ceiling: at least 12,000 feet AGL
Clouds: few clouds at 1500 feet AGL
scattered clouds at 3000 feet AGL
Weather: no significant weather forecast for this period